Time;durP1;ratioP1;P1;durP2;ratioP2;P2;SDS_P1;SDS_P2;PMS_P1;PMS_P2;Temp;Humidity;BMP_temperature;BMP_pressure;BME280_temperature;BME280_humidity;BME280_pressure;Samples;Min_cycle;Max_cycle;Signal;HPM_P1;HPM_P2
2021/12/22 08:41:11;;;;;;;50.35;22.70;;;;;;;;;;6332476;22;20014;-94
2021/12/22 08:43:52;;;;;;;55.70;25.08;;;;;;;;;;6311880;22;20003;-95
2021/12/22 08:56:46;;;;;;;48.58;20.35;;;;;;;;;;6334781;22;20029;-94
2021/12/22 08:59:29;;;;;;;53.90;24.38;;;;;;;;;;6311259;22;20003;-94
2021/12/22 09:02:12;;;;;;;50.70;21.02;;;;;;;;;;6310755;22;20027;-93
2021/12/22 09:05:00;;;;;;;55.72;24.63;;;;;;;;;;6324322;22;20019;-93
2021/12/22 09:08:03;;;;;;;57.70;25.00;;;;;;;;;;6310585;22;20030;-93
2021/12/22 09:10:44;;;;;;;64.03;24.38;;;;;;;;;;6298366;22;20022;-94
2021/12/22 09:13:24;;;;;;;60.83;26.60;;;;;;;;;;6310368;22;20010;-94
2021/12/22 09:16:05;;;;;;;64.90;25.58;;;;;;;;;;6310630;22;20039;-94
2021/12/22 09:24:44;;;;;;;65.53;26.63;;;;;;;;;;6279666;22;20021;-93
2021/12/22 09:27:25;;;;;;;60.72;24.33;;;;;;;;;;6312141;22;20010;-93
2021/12/22 09:30:15;;;;;;;63.30;24.92;;;;;;;;;;6336428;22;20018;-95
2021/12/22 09:32:56;;;;;;;59.70;23.40;;;;;;;;;;6313513;22;20049;-94
2021/12/22 09:35:41;;;;;;;65.97;25.15;;;;;;;;;;6289293;22;20003;-95
2021/12/22 09:38:40;;;;;;;68.35;26.98;;;;;;;;;;6335715;22;20003;-95
2021/12/22 09:41:23;;;;;;;63.55;26.38;;;;;;;;;;6336285;22;20027;-95
2021/12/22 09:44:07;;;;;;;58.47;24.35;;;;;;;;;;6336660;22;20004;-94
2021/12/22 09:46:52;;;;;;;58.38;25.08;;;;;;;;;;6313323;22;20003;-95
2021/12/22 09:52:23;;;;;;;57.47;24.27;;;;;;;;;;6336489;22;20011;-94
2021/12/22 09:58:30;;;;;;;65.97;25.85;;;;;;;;;;6337821;22;20027;-94
2021/12/22 10:01:11;;;;;;;62.80;25.40;;;;;;;;;;6313451;22;20024;-94
2021/12/22 10:04:09;;;;;;;58.05;22.42;;;;;;;;;;6313400;22;19999;-95
2021/12/22 10:06:50;;;;;;;67.07;25.15;;;;;;;;;;6336175;22;19999;-95
2021/12/22 10:17:05;;;;;;;66.43;25.05;;;;;;;;;;6338119;22;19982;-95
2021/12/22 10:20:39;;;;;;;73.30;26.70;;;;;;;;;;6214403;23;20037;-95
2021/12/22 10:24:16;;;;;;;70.45;26.30;;;;;;;;;;6199237;23;20012;-96
2021/12/22 10:31:43;;;;;;;59.78;25.75;;;;;;;;;;6214280;23;20101;-95
2021/12/22 10:38:31;;;;;;;;;;;;;;;;;;6215630;23;20025;-96
2021/12/22 10:42:16;;;;;;;64.57;27.83;;;;;;;;;;6216182;23;19914;-96
2021/12/22 14:41:02;;;;;;;55.97;24.30;;;;;;;;;;6307498;22;20026;-96
2021/12/22 14:43:49;;;;;;;50.25;22.92;;;;;;;;;;6304711;22;20011;-96
2021/12/22 14:46:51;;;;;;;45.65;22.65;;;;;;;;;;6284455;22;20032;-95
2021/12/22 14:49:38;;;;;;;49.88;23.30;;;;;;;;;;6304769;22;20000;-95
2021/12/22 14:52:39;;;;;;;52.20;24.25;;;;;;;;;;6284322;22;20011;-96
2021/12/22 14:55:39;;;;;;;51.67;22.25;;;;;;;;;;6307110;22;20000;-96
2021/12/22 14:58:30;;;;;;;48.97;22.45;;;;;;;;;;6305606;22;20000;-95
2021/12/22 15:01:22;;;;;;;48.58;21.38;;;;;;;;;;6305454;22;20029;-95
2021/12/22 15:04:03;;;;;;;48.95;22.02;;;;;;;;;;6262014;22;20004;-96
2021/12/22 15:07:09;;;;;;;56.73;24.70;;;;;;;;;;6306987;22;20007;-96
2021/12/22 15:09:55;;;;;;;60.35;25.00;;;;;;;;;;6301051;22;20023;-96
2021/12/22 15:12:36;;;;;;;48.70;21.75;;;;;;;;;;6284085;22;20008;-96
2021/12/22 15:15:41;;;;;;;50.90;23.60;;;;;;;;;;6283983;22;20000;-96
2021/12/22 15:18:23;;;;;;;56.53;23.05;;;;;;;;;;6306723;22;20019;-96
2021/12/22 15:21:15;;;;;;;52.50;23.73;;;;;;;;;;6305586;22;20063;-96
2021/12/22 15:24:01;;;;;;;54.58;22.83;;;;;;;;;;6305435;22;20022;-96
2021/12/22 15:27:04;;;;;;;60.55;28.70;;;;;;;;;;6282984;22;20029;-96
2021/12/22 15:30:05;;;;;;;70.47;23.95;;;;;;;;;;6283296;22;19999;-96
2021/12/22 15:32:54;;;;;;;55.10;21.98;;;;;;;;;;6306560;22;20011;-96
2021/12/22 15:35:38;;;;;;;50.67;22.85;;;;;;;;;;6283734;22;19999;-96
2021/12/22 15:38:24;;;;;;;51.45;22.95;;;;;;;;;;6285459;22;20000;-96
2021/12/22 15:41:32;;;;;;;54.60;23.33;;;;;;;;;;6304909;22;20016;-96
2021/12/22 15:44:38;;;;;;;58.42;23.05;;;;;;;;;;6306391;22;20034;-96
2021/12/22 15:47:39;;;;;;;57.95;24.70;;;;;;;;;;6304838;22;20047;-96
2021/12/22 15:50:29;;;;;;;;;;;;;;;;;;6306785;22;20079;-96
2021/12/22 15:53:31;;;;;;;58.13;22.90;;;;;;;;;;6305538;22;19922;-96
2021/12/22 15:56:20;;;;;;;55.63;23.38;;;;;;;;;;6306674;22;20048;-95
2021/12/22 15:59:02;;;;;;;52.30;23.23;;;;;;;;;;6305719;22;20014;-95
2021/12/22 16:01:43;;;;;;;54.10;25.15;;;;;;;;;;6283700;22;20007;-94
2021/12/22 16:04:26;;;;;;;60.45;25.40;;;;;;;;;;6306476;22;20030;-94
2021/12/22 16:07:07;;;;;;;64.53;24.83;;;;;;;;;;6282329;22;20030;-95
2021/12/22 16:09:49;;;;;;;58.13;24.65;;;;;;;;;;6305192;22;20067;-94
2021/12/22 16:12:30;;;;;;;61.75;24.73;;;;;;;;;;6282924;22;20008;-94
2021/12/22 16:15:14;;;;;;;59.38;24.38;;;;;;;;;;6282824;22;20003;-96
2021/12/22 16:17:56;;;;;;;61.63;25.08;;;;;;;;;;6283450;22;20049;-93
2021/12/22 16:20:38;;;;;;;61.22;22.63;;;;;;;;;;6283471;22;20007;-95
2021/12/22 16:23:29;;;;;;;70.68;27.83;;;;;;;;;;6283248;22;20010;-93
2021/12/22 16:26:10;;;;;;;61.38;25.83;;;;;;;;;;6282532;22;20004;-95
2021/12/22 16:29:01;;;;;;;58.70;25.48;;;;;;;;;;6282263;22;20006;-95
2021/12/22 16:31:52;;;;;;;65.13;25.58;;;;;;;;;;6304154;22;20011;-95
2021/12/22 16:34:46;;;;;;;58.78;24.58;;;;;;;;;;6281883;22;20000;-96
2021/12/22 16:37:47;;;;;;;67.30;26.80;;;;;;;;;;6282668;22;20008;-95
2021/12/22 16:40:31;;;;;;;63.20;27.67;;;;;;;;;;6305582;22;20008;-96
2021/12/22 16:43:24;;;;;;;70.13;27.17;;;;;;;;;;6260972;22;20008;-96
2021/12/22 16:46:16;;;;;;;63.42;24.45;;;;;;;;;;6283345;22;20046;-95
2021/12/22 16:49:14;;;;;;;62.78;25.52;;;;;;;;;;6305943;22;19999;-95
2021/12/22 16:52:08;;;;;;;69.78;26.73;;;;;;;;;;6306036;22;20032;-95
2021/12/22 16:55:11;;;;;;;58.58;23.70;;;;;;;;;;6283553;22;20030;-95
2021/12/22 16:58:16;;;;;;;62.83;26.33;;;;;;;;;;6306058;22;20043;-95
2021/12/22 17:01:02;;;;;;;59.53;22.92;;;;;;;;;;6283255;22;20003;-95
2021/12/22 17:03:50;;;;;;;67.60;27.98;;;;;;;;;;6305530;22;20031;-95
2021/12/22 17:06:39;;;;;;;68.20;27.23;;;;;;;;;;6305594;22;20003;-96
2021/12/22 17:09:21;;;;;;;66.30;27.30;;;;;;;;;;6276200;22;19999;-96
2021/12/22 17:12:03;;;;;;;71.15;27.88;;;;;;;;;;6282808;22;20015;-96
2021/12/22 17:15:13;;;;;;;63.78;26.65;;;;;;;;;;6282885;22;20030;-96
2021/12/22 17:18:34;;;;;;;69.28;26.65;;;;;;;;;;6301382;22;20008;-96
2021/12/22 17:21:32;;;;;;;66.25;25.35;;;;;;;;;;6305960;22;20004;-96
2021/12/22 17:24:13;;;;;;;60.00;25.02;;;;;;;;;;6283146;22;19999;-95
2021/12/22 17:26:55;;;;;;;65.13;25.90;;;;;;;;;;6282778;22;20002;-96
2021/12/22 17:29:43;;;;;;;61.50;24.55;;;;;;;;;;6305458;22;20023;-96
2021/12/22 17:32:25;;;;;;;60.40;24.83;;;;;;;;;;6305192;22;20003;-96
2021/12/22 17:35:07;;;;;;;58.65;24.48;;;;;;;;;;6283050;22;20030;-95
2021/12/22 17:37:49;;;;;;;66.35;25.45;;;;;;;;;;6281621;22;20034;-96
2021/12/22 17:40:30;;;;;;;61.10;26.10;;;;;;;;;;6305381;22;20007;-95
2021/12/22 17:43:13;;;;;;;62.55;25.67;;;;;;;;;;6282975;22;20011;-95
2021/12/22 17:45:57;;;;;;;67.57;25.13;;;;;;;;;;6282818;22;20007;-95
2021/12/22 17:48:49;;;;;;;62.67;25.92;;;;;;;;;;6279941;22;20027;-96
2021/12/22 17:51:31;;;;;;;66.78;25.92;;;;;;;;;;6282672;22;20073;-96
2021/12/22 17:54:23;;;;;;;72.82;28.50;;;;;;;;;;6280053;22;20000;-95
2021/12/22 17:57:26;;;;;;;71.40;30.20;;;;;;;;;;6282658;22;20010;-96
2021/12/22 18:00:10;;;;;;;76.25;27.08;;;;;;;;;;6282051;22;20019;-96
2021/12/22 18:02:50;;;;;;;85.45;29.15;;;;;;;;;;6266380;22;20011;-95
2021/12/22 18:05:33;;;;;;;71.82;30.20;;;;;;;;;;6282354;22;20015;-95
2021/12/22 18:08:22;;;;;;;71.43;29.98;;;;;;;;;;6281371;22;20052;-95
2021/12/22 18:11:06;;;;;;;67.78;28.25;;;;;;;;;;6305454;22;20011;-95
2021/12/22 18:13:49;;;;;;;67.53;28.50;;;;;;;;;;6281442;22;20011;-96
2021/12/22 18:16:36;;;;;;;69.70;28.08;;;;;;;;;;6305409;22;20011;-96
2021/12/22 18:19:20;;;;;;;63.03;26.67;;;;;;;;;;6280610;22;20011;-96
2021/12/22 18:22:18;;;;;;;66.28;27.55;;;;;;;;;;6285329;22;20051;-96
2021/12/22 18:24:59;;;;;;;65.43;25.85;;;;;;;;;;6282462;22;20000;-96
2021/12/22 18:27:41;;;;;;;58.92;27.10;;;;;;;;;;6282230;22;20007;-96
2021/12/22 18:30:22;;;;;;;67.82;27.75;;;;;;;;;;6282312;22;20000;-95
2021/12/22 18:33:08;;;;;;;60.17;24.58;;;;;;;;;;6282100;22;20015;-95
2021/12/22 18:35:57;;;;;;;66.75;24.88;;;;;;;;;;6280549;22;20007;-95
2021/12/22 18:38:42;;;;;;;65.72;26.08;;;;;;;;;;6282480;22;20004;-96
2021/12/22 18:41:26;;;;;;;78.72;28.27;;;;;;;;;;6282066;22;20015;-95
2021/12/22 18:44:07;;;;;;;68.05;26.08;;;;;;;;;;6282013;22;20026;-95
2021/12/22 18:46:50;;;;;;;69.85;28.35;;;;;;;;;;6305262;22;20063;-96
2021/12/22 18:49:37;;;;;;;73.78;28.60;;;;;;;;;;6282287;22;20004;-96
2021/12/22 18:52:22;;;;;;;64.20;27.95;;;;;;;;;;6305256;22;20004;-96
2021/12/22 18:55:03;;;;;;;69.28;28.60;;;;;;;;;;6305159;22;19999;-95
2021/12/22 18:57:52;;;;;;;67.55;27.92;;;;;;;;;;6301837;22;20027;-95
2021/12/22 19:00:42;;;;;;;72.43;27.70;;;;;;;;;;6305396;22;20004;-96
2021/12/22 19:03:29;;;;;;;76.53;30.55;;;;;;;;;;6284499;22;20004;-96
2021/12/22 19:06:15;;;;;;;69.38;29.17;;;;;;;;;;6262069;22;20003;-96
2021/12/22 19:08:59;;;;;;;72.07;28.13;;;;;;;;;;6306906;22;20012;-95
2021/12/22 19:11:58;;;;;;;63.72;28.38;;;;;;;;;;6284142;22;20010;-95
2021/12/22 19:14:42;;;;;;;62.70;26.95;;;;;;;;;;6283047;22;20000;-96
2021/12/22 19:17:26;;;;;;;65.50;27.27;;;;;;;;;;6284152;22;20000;-95
2021/12/22 19:20:07;;;;;;;59.20;26.88;;;;;;;;;;6282708;22;20022;-95
2021/12/22 19:22:48;;;;;;;73.93;27.38;;;;;;;;;;6284521;22;20003;-95
2021/12/22 19:25:35;;;;;;;69.45;26.80;;;;;;;;;;6306688;22;20014;-95
2021/12/22 19:28:19;;;;;;;66.68;27.08;;;;;;;;;;6261967;22;20004;-96
2021/12/22 19:31:00;;;;;;;66.88;27.45;;;;;;;;;;6284129;22;20006;-96
2021/12/22 19:33:41;;;;;;;70.68;27.00;;;;;;;;;;6284201;22;20083;-95
2021/12/22 19:36:23;;;;;;;55.78;24.30;;;;;;;;;;6306902;22;20000;-96
2021/12/22 19:39:23;;;;;;;65.22;26.10;;;;;;;;;;6283885;22;20030;-96
2021/12/22 19:42:04;;;;;;;59.03;24.90;;;;;;;;;;6280435;22;20015;-95
2021/12/22 19:44:51;;;;;;;59.40;25.15;;;;;;;;;;6306829;22;20031;-96
2021/12/22 19:47:33;;;;;;;61.38;25.95;;;;;;;;;;6306741;22;20031;-96
2021/12/22 19:50:19;;;;;;;64.78;26.23;;;;;;;;;;6283744;22;20007;-96
2021/12/22 19:52:59;;;;;;;;;;;;;;;;;;6284031;22;20010;-96
2021/12/22 19:55:43;;;;;;;68.53;28.75;;;;;;;;;;6284054;22;19926;-96
2021/12/22 19:58:29;;;;;;;74.10;30.63;;;;;;;;;;6283710;22;19999;-96
2021/12/22 20:01:14;;;;;;;70.65;30.83;;;;;;;;;;6306656;22;20035;-94
2021/12/22 20:04:17;;;;;;;64.75;28.58;;;;;;;;;;6305502;22;20004;-95
2021/12/22 20:07:40;;;;;;;114.55;36.88;;;;;;;;;;6300849;22;20004;-96
2021/12/22 20:10:33;;;;;;;67.72;27.40;;;;;;;;;;6306232;22;20026;-96
2021/12/22 20:13:16;;;;;;;62.58;26.17;;;;;;;;;;6306046;22;20056;-95
2021/12/22 20:15:58;;;;;;;74.82;28.10;;;;;;;;;;6306497;22;20000;-96
2021/12/22 20:18:45;;;;;;;83.10;33.63;;;;;;;;;;6283546;22;20000;-94
2021/12/22 20:21:50;;;;;;;77.75;30.20;;;;;;;;;;6284530;22;20058;-94
2021/12/22 20:24:33;;;;;;;100.07;38.60;;;;;;;;;;6282935;22;20007;-95
2021/12/22 20:27:17;;;;;;;86.75;31.58;;;;;;;;;;6306419;22;20026;-96
2021/12/22 20:29:59;;;;;;;59.17;26.40;;;;;;;;;;6306060;22;20006;-96
2021/12/22 20:32:40;;;;;;;59.05;26.38;;;;;;;;;;6283172;22;20004;-96
2021/12/22 20:35:25;;;;;;;57.60;27.27;;;;;;;;;;6283097;22;20007;-96
2021/12/22 20:38:08;;;;;;;60.22;25.70;;;;;;;;;;6282217;22;20016;-96
2021/12/22 20:40:50;;;;;;;61.20;24.65;;;;;;;;;;6282791;22;20034;-95
2021/12/22 20:43:35;;;;;;;62.38;25.92;;;;;;;;;;6273233;23;20011;-95
2021/12/22 20:46:26;;;;;;;60.40;26.55;;;;;;;;;;6273104;23;20008;-95
2021/12/22 20:49:08;;;;;;;52.70;24.40;;;;;;;;;;6275426;23;20000;-96
2021/12/22 20:51:48;;;;;;;58.00;26.98;;;;;;;;;;6274770;23;20008;-96
2021/12/22 20:54:32;;;;;;;56.83;24.50;;;;;;;;;;6275105;23;20000;-96
2021/12/22 20:57:17;;;;;;;52.92;25.48;;;;;;;;;;6273339;23;20023;-95
2021/12/22 21:00:10;;;;;;;57.40;25.05;;;;;;;;;;6275602;23;20062;-96
2021/12/22 21:02:51;;;;;;;;;;;;;;;;;;6274014;23;20011;-96
2021/12/22 21:05:32;;;;;;;61.33;27.45;;;;;;;;;;6274932;23;19903;-96
2021/12/22 21:08:14;;;;;;;53.58;25.40;;;;;;;;;;6252336;23;20030;-95
2021/12/22 21:11:17;;;;;;;58.25;25.10;;;;;;;;;;6275272;23;20023;-96
2021/12/22 21:14:00;;;;;;;58.15;25.23;;;;;;;;;;6275287;23;20004;-95
2021/12/22 21:16:43;;;;;;;59.20;25.33;;;;;;;;;;6275333;23;20001;-95
2021/12/22 21:19:23;;;;;;;60.53;25.25;;;;;;;;;;6252754;23;20028;-95
2021/12/22 21:22:09;;;;;;;54.33;25.42;;;;;;;;;;6275068;23;20004;-96
2021/12/22 21:24:53;;;;;;;51.83;24.23;;;;;;;;;;6252365;23;20003;-95
2021/12/22 21:27:39;;;;;;;52.38;23.88;;;;;;;;;;6272807;23;20004;-96
2021/12/22 21:33:51;;;;;;;;;;;;;;;;;;6259508;23;19991;-95
2021/12/22 21:36:49;;;;;;;54.22;22.73;;;;;;;;;;6274559;23;19923;-95
2021/12/22 21:39:33;;;;;;;56.33;24.08;;;;;;;;;;6252640;23;20012;-96
2021/12/22 21:42:35;;;;;;;50.30;24.05;;;;;;;;;;6282702;22;20003;-96
2021/12/22 21:45:20;;;;;;;50.45;23.30;;;;;;;;;;6222604;23;20032;-95
2021/12/22 21:48:03;;;;;;;56.15;25.52;;;;;;;;;;6242723;23;20009;-96
2021/12/22 21:50:52;;;;;;;60.67;24.83;;;;;;;;;;6241827;23;20016;-96
2021/12/22 21:53:37;;;;;;;53.47;23.30;;;;;;;;;;6222713;23;20032;-96
2021/12/22 21:56:19;;;;;;;48.60;23.90;;;;;;;;;;6222865;23;20027;-96
2021/12/22 21:59:01;;;;;;;53.75;23.88;;;;;;;;;;6222719;23;20001;-96
2021/12/22 22:01:42;;;;;;;47.35;22.98;;;;;;;;;;6221511;23;20032;-95
2021/12/22 22:04:23;;;;;;;50.55;22.75;;;;;;;;;;6222856;23;20027;-96
2021/12/22 22:07:04;;;;;;;64.72;23.77;;;;;;;;;;6222905;23;20000;-95
2021/12/22 22:09:45;;;;;;;50.28;21.30;;;;;;;;;;6222063;23;20013;-94
2021/12/22 22:12:26;;;;;;;49.05;23.00;;;;;;;;;;6244813;23;20024;-95
2021/12/22 22:15:08;;;;;;;55.63;23.40;;;;;;;;;;6226730;22;20017;-95
2021/12/22 22:17:50;;;;;;;52.15;23.05;;;;;;;;;;6281273;22;20000;-94
2021/12/22 22:20:32;;;;;;;53.40;23.25;;;;;;;;;;6303918;22;20022;-94
2021/12/22 22:23:10;;;;;;;62.30;25.08;;;;;;;;;;6281077;22;20012;-94
2021/12/22 22:26:06;;;;;;;47.92;23.25;;;;;;;;;;6282642;22;20056;-94
2021/12/22 22:28:46;;;;;;;47.83;23.15;;;;;;;;;;6282722;22;20011;-94
2021/12/22 22:31:27;;;;;;;55.97;22.83;;;;;;;;;;6282310;22;20019;-93
2021/12/22 22:34:07;;;;;;;53.65;22.02;;;;;;;;;;6280716;22;20027;-94
2021/12/22 22:36:42;;;;;;;53.13;22.58;;;;;;;;;;6278661;22;20033;-94
2021/12/22 22:39:13;;;;;;;52.17;22.77;;;;;;;;;;6280456;22;20007;-93
2021/12/22 22:41:53;;;;;;;49.88;22.17;;;;;;;;;;6283131;22;20016;-91
2021/12/22 22:44:34;;;;;;;42.13;21.45;;;;;;;;;;6281973;22;20008;-92
2021/12/22 22:47:14;;;;;;;49.72;22.10;;;;;;;;;;6282844;22;20011;-93
2021/12/22 22:49:55;;;;;;;48.78;21.83;;;;;;;;;;6283752;22;20055;-92
2021/12/22 22:52:22;;;;;;;47.72;21.20;;;;;;;;;;6280994;22;20095;-93
2021/12/22 22:55:05;;;;;;;47.10;22.25;;;;;;;;;;6281151;22;20060;-94
2021/12/22 22:57:34;;;;;;;48.38;21.25;;;;;;;;;;6306832;22;20035;-94
2021/12/22 23:00:22;;;;;;;48.05;22.27;;;;;;;;;;6222317;23;20024;-94
2021/12/22 23:02:50;;;;;;;47.67;22.25;;;;;;;;;;6244683;23;20060;-93
2021/12/22 23:05:32;;;;;;;46.03;20.70;;;;;;;;;;6243315;23;20005;-93
2021/12/22 23:08:02;;;;;;;51.83;24.20;;;;;;;;;;6244030;23;20035;-92
2021/12/22 23:10:30;;;;;;;44.78;22.10;;;;;;;;;;6244348;23;20064;-92
2021/12/22 23:12:57;;;;;;;48.10;21.67;;;;;;;;;;6244318;23;20112;-92
2021/12/22 23:15:26;;;;;;;39.72;19.75;;;;;;;;;;6244208;23;20060;-92
2021/12/22 23:18:02;;;;;;;39.63;19.40;;;;;;;;;;6244299;23;20008;-94
2021/12/22 23:20:34;;;;;;;37.33;18.55;;;;;;;;;;6244218;23;20012;-92
2021/12/22 23:23:03;;;;;;;40.97;20.02;;;;;;;;;;6244329;23;20009;-93
2021/12/22 23:25:30;;;;;;;41.90;19.80;;;;;;;;;;6243995;23;20012;-93
2021/12/22 23:28:02;;;;;;;45.03;20.27;;;;;;;;;;6244100;23;20008;-92
2021/12/22 23:30:31;;;;;;;44.85;21.55;;;;;;;;;;6256697;22;20027;-93
2021/12/22 23:32:59;;;;;;;43.03;20.67;;;;;;;;;;6280595;22;20007;-92
2021/12/22 23:35:29;;;;;;;46.05;19.83;;;;;;;;;;6281190;22;20026;-93
2021/12/22 23:41:00;;;;;;;45.58;20.08;;;;;;;;;;6306187;22;20409;-93
2021/12/22 23:49:18;;;;;;;41.22;19.08;;;;;;;;;;6304746;22;20011;-94
2021/12/22 23:51:53;;;;;;;39.50;19.25;;;;;;;;;;6280503;22;20030;-96
